sensor_id;sensor_type;location;lat;lon;timestamp;pressure;altitude;pressure_sealevel;temperature;humidity
66196;BME280;53000;45.182;5.736;2023-05-20T00:00:56;99090.38;;;16.63;68.54
66196;BME280;53000;45.182;5.736;2023-05-20T00:03:21;99088.91;;;16.61;68.63
66196;BME280;53000;45.182;5.736;2023-05-20T00:05:47;99092.03;;;16.64;68.59
66196;BME280;53000;45.182;5.736;2023-05-20T00:08:13;99096.47;;;16.65;68.73
66196;BME280;53000;45.182;5.736;2023-05-20T00:10:38;99088.25;;;16.65;68.64
66196;BME280;53000;45.182;5.736;2023-05-20T00:13:04;99091.19;;;16.64;68.77
66196;BME280;53000;45.182;5.736;2023-05-20T00:15:30;99083.41;;;16.67;68.60
66196;BME280;53000;45.182;5.736;2023-05-20T00:17:56;99077.34;;;16.65;68.83
66196;BME280;53000;45.182;5.736;2023-05-20T00:20:22;99083.84;;;16.64;68.94
66196;BME280;53000;45.182;5.736;2023-05-20T00:22:47;99085.09;;;16.62;68.72
66196;BME280;53000;45.182;5.736;2023-05-20T00:25:12;99079.63;;;16.62;68.98
66196;BME280;53000;45.182;5.736;2023-05-20T00:27:40;99080.72;;;16.61;69.00
66196;BME280;53000;45.182;5.736;2023-05-20T00:30:06;99069.97;;;16.59;68.90
66196;BME280;53000;45.182;5.736;2023-05-20T00:32:32;99078.38;;;16.58;68.68
66196;BME280;53000;45.182;5.736;2023-05-20T00:34:58;99073.16;;;16.56;68.72
66196;BME280;53000;45.182;5.736;2023-05-20T00:37:24;99069.16;;;16.52;68.93
66196;BME280;53000;45.182;5.736;2023-05-20T00:39:50;99074.63;;;16.52;68.83
66196;BME280;53000;45.182;5.736;2023-05-20T00:42:22;99065.19;;;16.48;69.06
66196;BME280;53000;45.182;5.736;2023-05-20T00:44:48;99062.22;;;16.49;69.02
66196;BME280;53000;45.182;5.736;2023-05-20T00:47:17;99063.28;;;16.48;68.91
66196;BME280;53000;45.182;5.736;2023-05-20T00:49:48;99060.53;;;16.48;68.78
66196;BME280;53000;45.182;5.736;2023-05-20T00:52:14;99067.06;;;16.47;69.13
66196;BME280;53000;45.182;5.736;2023-05-20T00:54:40;99061.59;;;16.47;69.04
66196;BME280;53000;45.182;5.736;2023-05-20T00:57:06;99056.97;;;16.48;69.00
66196;BME280;53000;45.182;5.736;2023-05-20T00:59:35;99062.44;;;16.48;69.07
66196;BME280;53000;45.182;5.736;2023-05-20T01:02:04;99066.66;;;16.44;69.50
66196;BME280;53000;45.182;5.736;2023-05-20T01:04:30;99060.78;;;16.40;68.96
66196;BME280;53000;45.182;5.736;2023-05-20T01:07:00;99058.25;;;16.39;69.01
66196;BME280;53000;45.182;5.736;2023-05-20T01:09:27;99056.38;;;16.39;69.38
66196;BME280;53000;45.182;5.736;2023-05-20T01:12:42;99060.97;;;16.39;69.29
66196;BME280;53000;45.182;5.736;2023-05-20T01:15:00;99062.03;;;16.38;68.83
66196;BME280;53000;45.182;5.736;2023-05-20T01:17:30;99059.94;;;16.40;69.09
66196;BME280;53000;45.182;5.736;2023-05-20T01:19:58;99057.22;;;16.40;68.69
66196;BME280;53000;45.182;5.736;2023-05-20T01:22:28;99058.25;;;16.39;68.02
66196;BME280;53000;45.182;5.736;2023-05-20T01:24:54;99054.88;;;16.30;69.44
66196;BME280;53000;45.182;5.736;2023-05-20T01:27:21;99056.38;;;16.26;69.25
66196;BME280;53000;45.182;5.736;2023-05-20T01:29:48;99059.09;;;16.26;69.52
66196;BME280;53000;45.182;5.736;2023-05-20T01:32:23;99056.81;;;16.23;69.61
66196;BME280;53000;45.182;5.736;2023-05-20T01:34:51;99058.06;;;16.20;69.47
66196;BME280;53000;45.182;5.736;2023-05-20T01:37:18;99056.16;;;16.21;69.90
66196;BME280;53000;45.182;5.736;2023-05-20T01:39:45;99046.94;;;16.22;69.39
66196;BME280;53000;45.182;5.736;2023-05-20T01:42:12;99052.16;;;16.23;69.19
66196;BME280;53000;45.182;5.736;2023-05-20T01:44:39;99041.25;;;16.23;69.87
66196;BME280;53000;45.182;5.736;2023-05-20T01:47:05;99050.50;;;16.22;70.30
66196;BME280;53000;45.182;5.736;2023-05-20T01:49:30;99038.31;;;16.18;70.00
66196;BME280;53000;45.182;5.736;2023-05-20T01:51:56;99033.72;;;16.12;69.92
66196;BME280;53000;45.182;5.736;2023-05-20T01:54:21;99034.53;;;16.12;69.69
66196;BME280;53000;45.182;5.736;2023-05-20T01:56:48;99033.72;;;16.12;70.39
66196;BME280;53000;45.182;5.736;2023-05-20T01:59:14;99031.41;;;16.09;70.16
66196;BME280;53000;45.182;5.736;2023-05-20T02:01:39;99024.25;;;16.08;69.65
66196;BME280;53000;45.182;5.736;2023-05-20T02:04:05;99023.44;;;16.07;69.71
66196;BME280;53000;45.182;5.736;2023-05-20T02:06:30;99025.72;;;16.10;69.86
66196;BME280;53000;45.182;5.736;2023-05-20T02:08:55;99027.41;;;16.11;69.77
66196;BME280;53000;45.182;5.736;2023-05-20T02:11:21;99035.59;;;16.11;69.83
66196;BME280;53000;45.182;5.736;2023-05-20T02:13:46;99030.56;;;16.08;69.42
66196;BME280;53000;45.182;5.736;2023-05-20T02:16:12;99015.88;;;16.09;69.33
66196;BME280;53000;45.182;5.736;2023-05-20T02:18:37;99017.53;;;16.10;69.92
66196;BME280;53000;45.182;5.736;2023-05-20T02:21:03;99019.44;;;16.10;69.36
66196;BME280;53000;45.182;5.736;2023-05-20T02:23:32;99013.34;;;16.08;69.48
66196;BME280;53000;45.182;5.736;2023-05-20T02:25:58;99014.16;;;16.08;69.37
66196;BME280;53000;45.182;5.736;2023-05-20T02:28:24;99014.16;;;16.08;69.27
66196;BME280;53000;45.182;5.736;2023-05-20T02:30:49;99010.59;;;16.08;69.29
66196;BME280;53000;45.182;5.736;2023-05-20T02:33:18;99020.06;;;16.05;69.74
66196;BME280;53000;45.182;5.736;2023-05-20T02:35:44;99014.19;;;16.02;69.93
66196;BME280;53000;45.182;5.736;2023-05-20T02:38:11;99019.84;;;16.00;69.75
66196;BME280;53000;45.182;5.736;2023-05-20T02:40:36;99006.63;;;15.97;69.97
66196;BME280;53000;45.182;5.736;2023-05-20T02:43:02;99006.19;;;15.93;70.01
66196;BME280;53000;45.182;5.736;2023-05-20T02:45:27;99005.38;;;15.93;70.00
66196;BME280;53000;45.182;5.736;2023-05-20T02:47:55;98993.41;;;15.94;70.04
66196;BME280;53000;45.182;5.736;2023-05-20T02:50:21;98994.03;;;15.96;69.91
66196;BME280;53000;45.182;5.736;2023-05-20T02:52:46;99003.25;;;16.02;69.90
66196;BME280;53000;45.182;5.736;2023-05-20T02:55:12;99004.72;;;16.04;69.61
66196;BME280;53000;45.182;5.736;2023-05-20T02:57:37;98999.88;;;16.06;69.59
66196;BME280;53000;45.182;5.736;2023-05-20T03:00:03;99003.25;;;16.08;69.83
66196;BME280;53000;45.182;5.736;2023-05-20T03:02:32;98994.03;;;16.09;70.02
66196;BME280;53000;45.182;5.736;2023-05-20T03:04:58;99003.25;;;16.08;70.11
66196;BME280;53000;45.182;5.736;2023-05-20T03:07:24;98994.03;;;16.09;69.54
66196;BME280;53000;45.182;5.736;2023-05-20T03:09:49;98995.47;;;16.12;69.77
66196;BME280;53000;45.182;5.736;2023-05-20T03:12:15;98990.03;;;16.12;69.50
66196;BME280;53000;45.182;5.736;2023-05-20T03:14:40;98990.03;;;16.12;69.39
66196;BME280;53000;45.182;5.736;2023-05-20T03:17:07;98986.03;;;16.14;69.58
66196;BME280;53000;45.182;5.736;2023-05-20T03:19:33;98981.19;;;16.17;69.44
66196;BME280;53000;45.182;5.736;2023-05-20T03:21:58;98977.41;;;16.18;69.71
66196;BME280;53000;45.182;5.736;2023-05-20T03:24:25;98980.34;;;16.16;69.96
66196;BME280;53000;45.182;5.736;2023-05-20T03:26:50;98975.31;;;16.13;69.58
66196;BME280;53000;45.182;5.736;2023-05-20T03:29:15;98979.72;;;16.14;69.35
66196;BME280;53000;45.182;5.736;2023-05-20T03:31:42;98978.66;;;16.15;69.10
66196;BME280;53000;45.182;5.736;2023-05-20T03:34:07;98974.91;;;16.16;69.64
66196;BME280;53000;45.182;5.736;2023-05-20T03:36:32;98981.38;;;16.15;69.46
66196;BME280;53000;45.182;5.736;2023-05-20T03:38:58;98975.09;;;16.14;69.44
66196;BME280;53000;45.182;5.736;2023-05-20T03:41:23;98974.91;;;16.16;69.51
66196;BME280;53000;45.182;5.736;2023-05-20T03:43:48;98967.53;;;16.17;69.25
66196;BME280;53000;45.182;5.736;2023-05-20T03:46:14;98968.59;;;16.15;69.19
66196;BME280;53000;45.182;5.736;2023-05-20T03:48:39;98973.19;;;16.15;68.86
66196;BME280;53000;45.182;5.736;2023-05-20T03:51:05;98971.53;;;16.14;68.77
66196;BME280;53000;45.182;5.736;2023-05-20T03:53:30;98966.06;;;16.14;68.95
66196;BME280;53000;45.182;5.736;2023-05-20T03:55:56;98965.44;;;16.12;68.91
66196;BME280;53000;45.182;5.736;2023-05-20T03:58:21;98968.19;;;16.12;69.18
66196;BME280;53000;45.182;5.736;2023-05-20T04:00:47;98962.28;;;16.15;69.11
66196;BME280;53000;45.182;5.736;2023-05-20T04:03:13;98971.97;;;16.18;68.74
66196;BME280;53000;45.182;5.736;2023-05-20T04:05:38;98973.63;;;16.19;68.73
66196;BME280;53000;45.182;5.736;2023-05-20T04:08:04;98972.78;;;16.18;68.50
66196;BME280;53000;45.182;5.736;2023-05-20T04:10:29;98976.34;;;16.19;68.69
66196;BME280;53000;45.182;5.736;2023-05-20T04:13:01;98969.44;;;16.16;68.61
66196;BME280;53000;45.182;5.736;2023-05-20T04:15:26;98972.38;;;16.14;68.62
66196;BME280;53000;45.182;5.736;2023-05-20T04:17:54;98965.25;;;16.13;68.51
66196;BME280;53000;45.182;5.736;2023-05-20T04:20:19;98965.44;;;16.12;68.59
66196;BME280;53000;45.182;5.736;2023-05-20T04:22:45;98970.91;;;16.12;68.62
66196;BME280;53000;45.182;5.736;2023-05-20T04:25:11;98970.91;;;16.12;68.58
66196;BME280;53000;45.182;5.736;2023-05-20T04:27:37;98967.75;;;16.15;68.42
66196;BME280;53000;45.182;5.736;2023-05-20T04:30:04;98962.28;;;16.15;68.36
66196;BME280;53000;45.182;5.736;2023-05-20T04:32:30;98960.16;;;16.17;68.38
66196;BME280;53000;45.182;5.736;2023-05-20T04:34:56;98961.88;;;16.18;68.43
66196;BME280;53000;45.182;5.736;2023-05-20T04:37:21;98958.06;;;16.19;68.52
66196;BME280;53000;45.182;5.736;2023-05-20T04:39:47;98956.19;;;16.20;68.06
66196;BME280;53000;45.182;5.736;2023-05-20T04:42:14;98952.59;;;16.19;68.22
66196;BME280;53000;45.182;5.736;2023-05-20T04:44:41;98960.59;;;16.21;68.49
66196;BME280;53000;45.182;5.736;2023-05-20T04:47:07;98960.59;;;16.21;68.48
66196;BME280;53000;45.182;5.736;2023-05-20T04:49:32;98959.56;;;16.22;68.14
66196;BME280;53000;45.182;5.736;2023-05-20T04:51:58;98956.81;;;16.22;67.79
66196;BME280;53000;45.182;5.736;2023-05-20T04:54:24;98955.97;;;16.21;67.56
66196;BME280;53000;45.182;5.736;2023-05-20T04:56:50;98960.59;;;16.21;67.67
66196;BME280;53000;45.182;5.736;2023-05-20T04:59:15;98961.66;;;16.20;67.40
66196;BME280;53000;45.182;5.736;2023-05-20T05:01:41;98959.13;;;16.18;67.67
66196;BME280;53000;45.182;5.736;2023-05-20T05:04:06;98955.78;;;16.16;67.36
66196;BME280;53000;45.182;5.736;2023-05-20T05:06:32;98955.97;;;16.14;67.48
66196;BME280;53000;45.182;5.736;2023-05-20T05:08:57;98959.78;;;16.13;67.40
66196;BME280;53000;45.182;5.736;2023-05-20T05:11:22;98954.72;;;16.10;67.39
66196;BME280;53000;45.182;5.736;2023-05-20T05:13:48;98956.00;;;16.08;67.46
66196;BME280;53000;45.182;5.736;2023-05-20T05:16:13;98944.66;;;16.04;67.60
66196;BME280;53000;45.182;5.736;2023-05-20T05:18:38;98940.25;;;16.03;67.51
66196;BME280;53000;45.182;5.736;2023-05-20T05:21:05;98948.25;;;16.05;67.67
66196;BME280;53000;45.182;5.736;2023-05-20T05:23:31;98939.00;;;16.06;67.47
66196;BME280;53000;45.182;5.736;2023-05-20T05:25:57;98936.25;;;16.06;67.42
66196;BME280;53000;45.182;5.736;2023-05-20T05:28:23;98937.09;;;16.06;67.46
66196;BME280;53000;45.182;5.736;2023-05-20T05:30:48;98942.56;;;16.06;67.16
66196;BME280;53000;45.182;5.736;2023-05-20T05:33:14;98945.28;;;16.06;67.34
66196;BME280;53000;45.182;5.736;2023-05-20T05:35:41;98941.72;;;16.06;67.43
66196;BME280;53000;45.182;5.736;2023-05-20T05:38:07;98944.44;;;16.06;67.23
66196;BME280;53000;45.182;5.736;2023-05-20T05:40:32;98943.19;;;16.08;67.18
66196;BME280;53000;45.182;5.736;2023-05-20T05:42:58;98935.84;;;16.09;66.82
66196;BME280;53000;45.182;5.736;2023-05-20T05:45:23;98935.22;;;16.07;66.95
66196;BME280;53000;45.182;5.736;2023-05-20T05:47:49;98937.53;;;16.03;67.08
66196;BME280;53000;45.182;5.736;2023-05-20T05:50:14;98941.94;;;16.04;66.93
66196;BME280;53000;45.182;5.736;2023-05-20T05:52:39;98937.97;;;16.07;67.21
66196;BME280;53000;45.182;5.736;2023-05-20T05:55:05;98944.88;;;16.09;67.30
66196;BME280;53000;45.182;5.736;2023-05-20T05:57:31;98944.44;;;16.12;66.94
66196;BME280;53000;45.182;5.736;2023-05-20T05:59:56;98945.28;;;16.13;66.72
66196;BME280;53000;45.182;5.736;2023-05-20T06:02:22;98947.78;;;16.14;66.58
66196;BME280;53000;45.182;5.736;2023-05-20T06:04:47;98942.97;;;16.17;66.53
66196;BME280;53000;45.182;5.736;2023-05-20T06:07:12;98940.84;;;16.19;66.51
66196;BME280;53000;45.182;5.736;2023-05-20T06:09:38;98940.84;;;16.19;66.51
66196;BME280;53000;45.182;5.736;2023-05-20T06:12:04;98948.41;;;16.23;66.27
66196;BME280;53000;45.182;5.736;2023-05-20T06:14:29;98944.41;;;16.26;66.18
66196;BME280;53000;45.182;5.736;2023-05-20T06:16:56;98950.47;;;16.28;66.40
66196;BME280;53000;45.182;5.736;2023-05-20T06:19:21;98949.25;;;16.30;66.12
66196;BME280;53000;45.182;5.736;2023-05-20T06:21:47;98941.44;;;16.34;66.13
66196;BME280;53000;45.182;5.736;2023-05-20T06:24:12;98946.25;;;16.39;66.03
66196;BME280;53000;45.182;5.736;2023-05-20T06:26:37;98952.13;;;16.42;65.86
66196;BME280;53000;45.182;5.736;2023-05-20T06:29:03;98949.19;;;16.44;65.70
66196;BME280;53000;45.182;5.736;2023-05-20T06:31:28;98946.00;;;16.47;65.64
66196;BME280;53000;45.182;5.736;2023-05-20T06:33:54;98941.38;;;16.47;65.48
66196;BME280;53000;45.182;5.736;2023-05-20T06:36:19;98931.53;;;16.46;65.37
66196;BME280;53000;45.182;5.736;2023-05-20T06:38:45;98938.25;;;16.44;65.59
66196;BME280;53000;45.182;5.736;2023-05-20T06:41:10;98929.22;;;16.43;65.77
66196;BME280;53000;45.182;5.736;2023-05-20T06:43:35;98938.66;;;16.47;65.67
66196;BME280;53000;45.182;5.736;2023-05-20T06:46:01;98931.50;;;16.53;65.62
66196;BME280;53000;45.182;5.736;2023-05-20T06:48:26;98943.47;;;16.59;65.53
66196;BME280;53000;45.182;5.736;2023-05-20T06:50:51;98938.16;;;16.64;65.37
66196;BME280;53000;45.182;5.736;2023-05-20T06:53:17;98941.31;;;16.67;65.18
66196;BME280;53000;45.182;5.736;2023-05-20T06:55:42;98938.13;;;16.70;65.19
66196;BME280;53000;45.182;5.736;2023-05-20T06:58:07;98947.38;;;16.76;65.07
66196;BME280;53000;45.182;5.736;2023-05-20T07:00:33;98944.84;;;16.81;64.72
66196;BME280;53000;45.182;5.736;2023-05-20T07:02:58;98940.41;;;16.87;64.86
66196;BME280;53000;45.182;5.736;2023-05-20T07:05:23;98945.84;;;16.93;64.71
66196;BME280;53000;45.182;5.736;2023-05-20T07:07:49;98935.69;;;17.01;64.51
66196;BME280;53000;45.182;5.736;2023-05-20T07:10:15;98936.09;;;17.04;64.07
66196;BME280;53000;45.182;5.736;2023-05-20T07:12:40;98933.31;;;17.11;64.15
66196;BME280;53000;45.182;5.736;2023-05-20T07:15:07;98934.09;;;17.18;64.16
66196;BME280;53000;45.182;5.736;2023-05-20T07:17:32;98937.03;;;17.23;63.72
66196;BME280;53000;45.182;5.736;2023-05-20T07:19:58;98938.25;;;17.27;63.76
66196;BME280;53000;45.182;5.736;2023-05-20T07:22:23;98938.88;;;17.29;63.68
66196;BME280;53000;45.182;5.736;2023-05-20T07:24:48;98943.53;;;17.29;63.77
66196;BME280;53000;45.182;5.736;2023-05-20T07:27:14;98943.91;;;17.32;63.67
66196;BME280;53000;45.182;5.736;2023-05-20T07:29:39;98946.41;;;17.34;63.99
66196;BME280;53000;45.182;5.736;2023-05-20T07:32:05;98943.47;;;17.35;63.88
66196;BME280;53000;45.182;5.736;2023-05-20T07:34:30;98932.53;;;17.35;63.80
66196;BME280;53000;45.182;5.736;2023-05-20T07:36:56;98929.56;;;17.37;63.61
66196;BME280;53000;45.182;5.736;2023-05-20T07:39:22;98926.59;;;17.38;63.54
66196;BME280;53000;45.182;5.736;2023-05-20T07:41:48;98928.28;;;17.40;63.56
66196;BME280;53000;45.182;5.736;2023-05-20T07:44:13;98925.94;;;17.43;63.59
66196;BME280;53000;45.182;5.736;2023-05-20T07:46:39;98926.13;;;17.42;63.52
66196;BME280;53000;45.182;5.736;2023-05-20T07:49:06;98919.84;;;17.41;63.54
66196;BME280;53000;45.182;5.736;2023-05-20T07:51:31;98915.19;;;17.42;63.72
66196;BME280;53000;45.182;5.736;2023-05-20T07:53:57;98909.72;;;17.42;63.77
66196;BME280;53000;45.182;5.736;2023-05-20T07:56:23;98916.69;;;17.44;63.70
66196;BME280;53000;45.182;5.736;2023-05-20T07:58:53;98912.88;;;17.45;63.49
66196;BME280;53000;45.182;5.736;2023-05-20T08:01:19;98913.94;;;17.44;63.39
66196;BME280;53000;45.182;5.736;2023-05-20T08:03:44;98921.28;;;17.44;63.50
66196;BME280;53000;45.182;5.736;2023-05-20T08:06:10;98912.25;;;17.43;63.34
66196;BME280;53000;45.182;5.736;2023-05-20T08:08:35;98917.72;;;17.43;63.39
66196;BME280;53000;45.182;5.736;2023-05-20T08:11:00;98910.97;;;17.46;63.31
66196;BME280;53000;45.182;5.736;2023-05-20T08:13:26;98914.31;;;17.48;63.08
66196;BME280;53000;45.182;5.736;2023-05-20T08:15:55;98917.28;;;17.46;62.63
66196;BME280;53000;45.182;5.736;2023-05-20T08:18:21;98914.00;;;17.37;62.30
66196;BME280;53000;45.182;5.736;2023-05-20T08:20:46;98903.53;;;17.28;62.32
66196;BME280;53000;45.182;5.736;2023-05-20T08:23:12;98914.31;;;17.23;62.29
66196;BME280;53000;45.182;5.736;2023-05-20T08:25:37;98910.97;;;17.21;62.26
66196;BME280;53000;45.182;5.736;2023-05-20T08:28:03;98912.47;;;17.16;62.57
66196;BME280;53000;45.182;5.736;2023-05-20T08:30:33;98912.28;;;17.11;62.31
66196;BME280;53000;45.182;5.736;2023-05-20T08:32:59;98912.09;;;17.06;61.98
66196;BME280;53000;45.182;5.736;2023-05-20T08:35:26;98906.63;;;17.06;62.11
66196;BME280;53000;45.182;5.736;2023-05-20T08:37:51;98914.00;;;17.06;62.00
66196;BME280;53000;45.182;5.736;2023-05-20T08:40:20;98917.78;;;17.05;61.93
66196;BME280;53000;45.182;5.736;2023-05-20T08:42:47;98912.31;;;17.05;62.28
66196;BME280;53000;45.182;5.736;2023-05-20T08:45:16;98906.69;;;17.00;62.08
66196;BME280;53000;45.182;5.736;2023-05-20T08:47:42;98917.63;;;17.00;62.35
66196;BME280;53000;45.182;5.736;2023-05-20T08:50:09;98910.66;;;17.04;62.28
66196;BME280;53000;45.182;5.736;2023-05-20T08:52:37;98903.91;;;17.06;62.27
66196;BME280;53000;45.182;5.736;2023-05-20T08:55:08;98907.41;;;17.13;62.26
66196;BME280;53000;45.182;5.736;2023-05-20T08:57:35;98906.31;;;17.21;61.99
66196;BME280;53000;45.182;5.736;2023-05-20T09:00:02;98910.91;;;17.27;61.59
66196;BME280;53000;45.182;5.736;2023-05-20T09:02:36;98910.66;;;17.35;61.67
66196;BME280;53000;45.182;5.736;2023-05-20T09:05:02;98916.50;;;17.39;61.19
66196;BME280;53000;45.182;5.736;2023-05-20T09:07:29;98908.47;;;17.44;61.19
66196;BME280;53000;45.182;5.736;2023-05-20T09:09:55;98912.19;;;17.50;60.82
66196;BME280;53000;45.182;5.736;2023-05-20T09:12:20;98908.56;;;17.56;61.11
66196;BME280;53000;45.182;5.736;2023-05-20T09:14:46;98904.72;;;17.64;60.66
66196;BME280;53000;45.182;5.736;2023-05-20T09:17:12;98911.78;;;17.71;60.62
66196;BME280;53000;45.182;5.736;2023-05-20T09:19:37;98911.72;;;17.78;59.91
66196;BME280;53000;45.182;5.736;2023-05-20T09:22:02;98908.53;;;17.81;59.89
66196;BME280;53000;45.182;5.736;2023-05-20T09:24:29;98922.06;;;17.83;59.70
66196;BME280;53000;45.182;5.736;2023-05-20T09:26:54;98904.34;;;17.85;60.03
66196;BME280;53000;45.182;5.736;2023-05-20T09:29:20;98904.47;;;17.90;59.81
66196;BME280;53000;45.182;5.736;2023-05-20T09:31:47;98913.47;;;17.97;59.73
66196;BME280;53000;45.182;5.736;2023-05-20T09:34:13;98906.25;;;18.03;59.96
66196;BME280;53000;45.182;5.736;2023-05-20T09:36:38;98900.69;;;18.10;59.31
66196;BME280;53000;45.182;5.736;2023-05-20T09:39:07;98904.22;;;18.17;59.06
66196;BME280;53000;45.182;5.736;2023-05-20T09:42:04;98896.88;;;18.29;59.33
66196;BME280;53000;45.182;5.736;2023-05-20T09:44:32;98903.13;;;18.36;58.95
66196;BME280;53000;45.182;5.736;2023-05-20T09:46:58;98901.75;;;18.46;58.81
66196;BME280;53000;45.182;5.736;2023-05-20T09:49:25;98901.22;;;18.55;58.75
66196;BME280;53000;45.182;5.736;2023-05-20T09:51:53;98895.41;;;18.64;58.52
66196;BME280;53000;45.182;5.736;2023-05-20T09:54:19;98894.25;;;18.71;57.79
66196;BME280;53000;45.182;5.736;2023-05-20T09:56:45;98891.44;;;18.78;58.32
66196;BME280;53000;45.182;5.736;2023-05-20T09:59:13;98888.59;;;18.85;57.59
66196;BME280;53000;45.182;5.736;2023-05-20T10:01:39;98887.06;;;18.89;57.71
66196;BME280;53000;45.182;5.736;2023-05-20T10:04:06;98885.91;;;18.96;57.60
66196;BME280;53000;45.182;5.736;2023-05-20T10:06:45;98884.72;;;19.04;57.48
66196;BME280;53000;45.182;5.736;2023-05-20T10:09:31;98881.44;;;19.14;57.60
66196;BME280;53000;45.182;5.736;2023-05-20T10:12:28;98872.59;;;19.24;57.14
66196;BME280;53000;45.182;5.736;2023-05-20T10:17:49;98870.88;;;19.41;57.21
66196;BME280;53000;45.182;5.736;2023-05-20T10:20:18;98881.72;;;19.48;56.69
66196;BME280;53000;45.182;5.736;2023-05-20T10:22:54;98863.59;;;19.58;55.92
66196;BME280;53000;45.182;5.736;2023-05-20T10:25:25;98857.06;;;19.71;56.67
66196;BME280;53000;45.182;5.736;2023-05-20T10:27:51;98862.53;;;19.83;55.67
66196;BME280;53000;45.182;5.736;2023-05-20T10:30:19;98864.19;;;19.96;56.18
66196;BME280;53000;45.182;5.736;2023-05-20T10:32:52;98864.66;;;20.05;56.07
66196;BME280;53000;45.182;5.736;2023-05-20T10:35:22;98853.88;;;20.15;54.77
66196;BME280;53000;45.182;5.736;2023-05-20T10:37:50;98860.44;;;20.26;54.47
66196;BME280;53000;45.182;5.736;2023-05-20T10:40:18;98853.47;;;20.35;54.17
66196;BME280;53000;45.182;5.736;2023-05-20T10:42:44;98850.56;;;20.41;53.85
66196;BME280;53000;45.182;5.736;2023-05-20T10:45:10;98857.53;;;20.44;54.17
66196;BME280;53000;45.182;5.736;2023-05-20T10:47:36;98851.88;;;20.51;53.50
66196;BME280;53000;45.182;5.736;2023-05-20T10:50:01;98861.44;;;20.60;53.94
66196;BME280;53000;45.182;5.736;2023-05-20T10:52:32;98854.88;;;20.61;53.13
66196;BME280;53000;45.182;5.736;2023-05-20T10:54:59;98865.97;;;20.66;53.79
66196;BME280;53000;45.182;5.736;2023-05-20T10:57:26;98859.13;;;20.69;53.13
66196;BME280;53000;45.182;5.736;2023-05-20T10:59:52;98852.28;;;20.71;53.09
66196;BME280;53000;45.182;5.736;2023-05-20T11:02:18;98857.31;;;20.74;52.72
66196;BME280;53000;45.182;5.736;2023-05-20T11:04:44;98847.50;;;20.78;52.96
66196;BME280;53000;45.182;5.736;2023-05-20T11:07:10;98845.41;;;20.86;53.32
66196;BME280;53000;45.182;5.736;2023-05-20T11:09:36;98846.09;;;20.93;52.62
66196;BME280;53000;45.182;5.736;2023-05-20T11:12:01;98853.09;;;21.00;52.28
66196;BME280;53000;45.182;5.736;2023-05-20T11:14:30;98851.28;;;21.06;52.04
66196;BME280;53000;45.182;5.736;2023-05-20T11:16:57;98844.53;;;21.14;51.95
66196;BME280;53000;45.182;5.736;2023-05-20T11:19:23;98847.03;;;21.15;51.39
66196;BME280;53000;45.182;5.736;2023-05-20T11:21:48;98841.53;;;21.15;50.73
66196;BME280;53000;45.182;5.736;2023-05-20T11:24:22;98840.72;;;21.15;51.79
66196;BME280;53000;45.182;5.736;2023-05-20T11:26:47;98836.63;;;21.17;51.66
66196;BME280;53000;45.182;5.736;2023-05-20T11:29:12;98828.19;;;21.24;51.64
66196;BME280;53000;45.182;5.736;2023-05-20T11:31:38;98831.59;;;21.31;51.58
66196;BME280;53000;45.182;5.736;2023-05-20T11:34:03;98829.06;;;21.41;51.67
66196;BME280;53000;45.182;5.736;2023-05-20T11:36:29;98831.13;;;21.51;50.57
66196;BME280;53000;45.182;5.736;2023-05-20T11:38:58;98832.88;;;21.57;51.07
66196;BME280;53000;45.182;5.736;2023-05-20T11:41:27;98820.84;;;21.63;50.72
66196;BME280;53000;45.182;5.736;2023-05-20T11:43:59;98820.34;;;21.67;50.20
66196;BME280;53000;45.182;5.736;2023-05-20T11:46:25;98817.34;;;21.68;50.80
66196;BME280;53000;45.182;5.736;2023-05-20T11:48:54;98831.75;;;21.75;50.24
66196;BME280;53000;45.182;5.736;2023-05-20T11:51:26;98815.38;;;21.85;49.69
66196;BME280;53000;45.182;5.736;2023-05-20T11:53:52;98809.69;;;21.92;49.02
66196;BME280;53000;45.182;5.736;2023-05-20T11:56:19;98810.06;;;22.01;50.19
66196;BME280;53000;45.182;5.736;2023-05-20T11:58:45;98806.56;;;22.05;48.91
66196;BME280;53000;45.182;5.736;2023-05-20T12:01:10;98806.88;;;22.09;48.64
66196;BME280;53000;45.182;5.736;2023-05-20T12:03:36;98808.53;;;22.10;47.37
66196;BME280;53000;45.182;5.736;2023-05-20T12:06:02;98801.94;;;22.11;48.87
66196;BME280;53000;45.182;5.736;2023-05-20T12:08:28;98800.06;;;22.17;48.61
66196;BME280;53000;45.182;5.736;2023-05-20T12:10:53;98797.47;;;22.27;49.29
66196;BME280;53000;45.182;5.736;2023-05-20T12:13:19;98794.25;;;22.35;49.60
66196;BME280;53000;45.182;5.736;2023-05-20T12:15:44;98799.56;;;22.42;48.87
66196;BME280;53000;45.182;5.736;2023-05-20T12:18:09;98791.63;;;22.45;47.63
66196;BME280;53000;45.182;5.736;2023-05-20T12:20:35;98792.69;;;22.44;47.47
66196;BME280;53000;45.182;5.736;2023-05-20T12:23:01;98796.03;;;22.46;47.40
66196;BME280;53000;45.182;5.736;2023-05-20T12:25:27;98793.03;;;22.48;46.23
66196;BME280;53000;45.182;5.736;2023-05-20T12:27:54;98790.84;;;22.50;47.88
66196;BME280;53000;45.182;5.736;2023-05-20T12:30:21;98798.88;;;22.52;47.22
66196;BME280;53000;45.182;5.736;2023-05-20T12:32:48;98789.72;;;22.51;47.87
66196;BME280;53000;45.182;5.736;2023-05-20T12:35:24;98786.94;;;22.46;47.07
66196;BME280;53000;45.182;5.736;2023-05-20T12:37:50;98797.38;;;22.44;47.91
66196;BME280;53000;45.182;5.736;2023-05-20T12:40:15;98798.75;;;22.41;48.10
66196;BME280;53000;45.182;5.736;2023-05-20T12:42:41;98801.50;;;22.41;47.67
66196;BME280;53000;45.182;5.736;2023-05-20T12:45:07;98800.69;;;22.41;48.04
66196;BME280;53000;45.182;5.736;2023-05-20T12:47:33;98790.75;;;22.45;48.16
66196;BME280;53000;45.182;5.736;2023-05-20T12:50:00;98785.06;;;22.52;47.89
66196;BME280;53000;45.182;5.736;2023-05-20T12:52:26;98789.03;;;22.61;47.60
66196;BME280;53000;45.182;5.736;2023-05-20T12:54:55;98790.16;;;22.65;46.19
66196;BME280;53000;45.182;5.736;2023-05-20T12:57:21;98789.88;;;22.66;47.28
66196;BME280;53000;45.182;5.736;2023-05-20T12:59:47;98788.22;;;22.65;46.91